PDT,Max TemperatureF,Mean TemperatureF,Min TemperatureF,Max Dew PointF,MeanDew PointF,Min DewpointF,Max Humidity, Mean Humidity, Min Humidity, Max Sea Level PressureIn, Mean Sea Level PressureIn, Min Sea Level PressureIn, Max VisibilityMiles, Mean VisibilityMiles, Min VisibilityMiles, Max Wind SpeedMPH, Mean Wind SpeedMPH, Max Gust SpeedMPH,PrecipitationIn, CloudCover, Events, WindDirDegrees
2013-4-1,73,66,58,52,50,46,77,61,44,30.17,30.11,30.07,10,10,9,12,4,18,0.00,5,,271
2013-4-2,74,66,57,53,51,48,80,62,44,30.09,30.05,29.98,10,10,10,8,3,,0.00,4,,219
2013-4-3,79,69,59,54,53,52,80,60,39,30.09,30.04,29.97,10,9,6,12,3,16,0.00,3,,175
2013-4-4,78,69,60,55,53,51,78,59,39,30.10,30.06,30.00,10,8,5,10,3,16,0.00,4,,232
2013-4-5,73,67,61,55,54,53,84,67,49,30.08,30.05,29.99,10,9,5,13,4,17,0.00,5,,201
2013-4-6,75,68,61,54,52,51,78,62,46,30.08,30.02,29.96,10,10,10,14,5,17,0.00,5,,196
2013-4-7,75,67,59,55,53,51,78,62,46,29.96,29.89,29.81,10,10,10,14,4,17,0.00,4,,167
2013-4-8,72,66,59,54,43,26,78,49,19,29.81,29.71,29.64,10,10,10,15,7,25,T,4,,254
2013-4-9,79,67,54,46,35,21,61,37,12,30.00,29.88,29.82,10,10,10,15,5,21,0.00,0,,237
2013-4-10,86,69,52,49,36,22,64,37,10,30.08,30.02,29.97,10,10,9,15,3,21,0.00,0,,241
2013-4-11,78,67,55,52,47,36,64,44,23,29.99,29.87,29.79,10,10,10,14,5,18,0.00,1,,185
2013-4-12,77,69,60,54,51,50,69,55,41,29.90,29.83,29.77,10,10,8,12,3,16,0.00,4,,193
2013-4-13,65,62,59,54,52,49,80,74,67,29.91,29.88,29.84,10,9,4,9,4,13,0.00,8,,197
2013-4-14,66,62,58,50,49,48,72,64,56,29.88,29.85,29.82,10,10,10,12,5,17,0.00,8,,185
2013-4-15,69,64,59,54,50,45,80,65,49,29.90,29.86,29.84,10,9,4,15,6,21,0.03,8,Rain,183
2013-4-16,69,62,55,48,42,36,67,49,30,29.98,29.91,29.87,10,10,8,18,5,26,T,4,Rain,224
2013-4-17,78,66,53,40,25,11,41,25,8,30.12,30.05,29.99,10,10,10,17,5,24,0.00,0,,287
2013-4-18,84,68,51,39,23,7,59,33,6,30.19,30.14,30.09,10,10,10,23,8,29,0.00,0,,67
2013-4-19,91,72,52,47,28,12,47,27,6,30.15,30.06,29.97,10,10,10,13,3,18,0.00,0,,279
2013-4-20,86,71,56,55,48,38,83,53,23,29.99,29.93,29.87,10,10,9,12,3,16,0.00,0,,181
2013-4-21,80,69,58,56,53,45,86,58,30,30.01,29.97,29.93,10,8,0,10,3,14,0.00,3,Fog,203
2013-4-22,75,68,60,53,51,49,78,60,41,30.00,29.96,29.90,10,10,9,12,5,17,0.00,4,,191
2013-4-23,77,69,60,52,50,48,69,54,39,29.97,29.92,29.85,10,10,10,13,3,17,0.00,4,,217
2013-4-24,66,64,61,54,51,46,72,62,52,29.97,29.93,29.90,10,10,5,12,5,15,0.00,8,Rain,192
2013-4-25,76,69,62,52,50,46,67,52,36,30.10,30.03,29.96,10,10,10,12,2,16,0.00,6,,251
2013-4-26,81,69,56,53,50,48,77,55,33,30.15,30.12,30.08,10,10,10,12,3,16,0.00,0,,251
2013-4-27,82,70,57,55,53,50,77,57,36,30.14,30.07,29.99,10,10,9,10,2,18,0.00,0,,202
2013-4-28,79,71,62,56,55,54,78,62,45,30.02,29.94,29.85,10,9,7,10,3,15,0.00,4,,188
2013-4-29,74,68,61,55,54,52,84,67,49,29.90,29.86,29.78,10,9,6,10,4,14,0.00,5,,185
2013-4-30,70,66,61,54,52,51,72,64,55,29.89,29.85,29.82,10,10,10,12,5,16,0.00,8,,176